Time;durP1;ratioP1;P1;durP2;ratioP2;P2;SDS_P1;SDS_P2;PMS_P1;PMS_P2;Temp;Humidity;BMP_temperature;BMP_pressure;BME280_temperature;BME280_humidity;BME280_pressure;Samples;Min_cycle;Max_cycle;Signal;HPM_P1;HPM_P2
2023/09/13 00:00:16;;;;;;;19.38;14.48;;;17.30;99.90;;;;;;5055235;28;20060;-65
2023/09/13 00:02:42;;;;;;;24.92;15.65;;;17.20;99.90;;;;;;5055736;28;20035;-65
2023/09/13 00:05:09;;;;;;;23.45;16.52;;;17.20;99.90;;;;;;5055112;28;20037;-65
2023/09/13 00:07:38;;;;;;;19.70;14.13;;;17.20;99.90;;;;;;5055298;28;20037;-65
2023/09/13 00:10:04;;;;;;;23.65;14.95;;;17.10;99.90;;;;;;5055232;28;20048;-65
2023/09/13 00:12:30;;;;;;;17.00;14.77;;;17.10;99.90;;;;;;5055840;28;20048;-65
2023/09/13 00:14:56;;;;;;;23.80;14.82;;;17.10;99.90;;;;;;5054888;28;20040;-65
2023/09/13 00:17:23;;;;;;;20.52;14.93;;;17.10;99.90;;;;;;5055496;28;20025;-65
2023/09/13 00:19:49;;;;;;;21.85;15.65;;;17.10;99.90;;;;;;5055190;28;20025;-65
2023/09/13 00:22:15;;;;;;;21.38;15.60;;;17.00;99.90;;;;;;5054956;28;20439;-65
2023/09/13 00:24:41;;;;;;;23.38;15.48;;;17.00;99.90;;;;;;5055352;28;20218;-65
2023/09/13 00:27:07;;;;;;;18.23;15.63;;;17.00;99.90;;;;;;5054606;28;20089;-65
2023/09/13 00:29:34;;;;;;;21.88;15.48;;;17.00;99.90;;;;;;5055048;28;20023;-65
2023/09/13 00:32:03;;;;;;;20.95;16.02;;;16.90;99.90;;;;;;5054771;28;20070;-65
2023/09/13 00:34:30;;;;;;;21.13;15.50;;;16.80;99.90;;;;;;5055105;28;20025;-65
2023/09/13 00:36:56;;;;;;;23.67;16.17;;;16.80;99.90;;;;;;5054020;28;20115;-65
2023/09/13 00:39:22;;;;;;;23.90;16.30;;;16.80;99.90;;;;;;5055014;28;20064;-65
2023/09/13 00:41:48;;;;;;;22.30;16.33;;;16.80;99.90;;;;;;5053241;28;20390;-65
2023/09/13 00:44:14;;;;;;;22.75;15.55;;;16.70;99.90;;;;;;5053520;28;20036;-65
2023/09/13 00:46:42;;;;;;;22.15;15.88;;;16.70;99.90;;;;;;5054596;28;20032;-65
2023/09/13 00:49:09;;;;;;;24.55;15.55;;;16.60;99.90;;;;;;5054626;28;20520;-65
2023/09/13 00:51:35;;;;;;;20.33;15.25;;;16.70;99.90;;;;;;5053098;28;20086;-65
2023/09/13 00:54:04;;;;;;;21.55;15.57;;;16.60;99.90;;;;;;5054796;28;20025;-65
2023/09/13 00:56:32;;;;;;;23.38;15.98;;;16.60;99.90;;;;;;5054200;28;20059;-65
2023/09/13 00:58:58;;;;;;;22.00;15.20;;;16.50;99.90;;;;;;5036698;28;20041;-65
2023/09/13 01:01:27;;;;;;;19.90;15.95;;;16.50;99.90;;;;;;5054144;28;20021;-65
2023/09/13 01:03:55;;;;;;;23.35;15.45;;;16.50;99.90;;;;;;5053155;28;20037;-65
2023/09/13 01:06:21;;;;;;;23.35;15.80;;;16.50;99.90;;;;;;5053217;28;20033;-65
2023/09/13 01:08:48;;;;;;;22.08;16.45;;;16.50;99.90;;;;;;5054150;28;20029;-65
2023/09/13 01:11:14;;;;;;;20.75;16.10;;;16.40;99.90;;;;;;5054304;28;20039;-65
2023/09/13 01:13:40;;;;;;;21.80;15.70;;;16.40;99.90;;;;;;5052732;28;20029;-65
2023/09/13 01:16:14;;;;;;;22.25;15.38;;;16.50;99.90;;;;;;5053164;28;20120;-65
2023/09/13 01:19:10;;;;;;;19.10;16.38;;;16.40;99.90;;;;;;5052559;28;20040;-65
2023/09/13 01:22:08;;;;;;;20.70;15.88;;;16.40;99.90;;;;;;5054268;28;20036;-65
2023/09/13 01:25:03;;;;;;;22.67;16.58;;;16.40;99.90;;;;;;5036724;28;20039;-65
2023/09/13 01:27:49;;;;;;;26.50;15.70;;;16.40;99.90;;;;;;5048628;28;20544;-65
2023/09/13 01:30:17;;;;;;;19.42;16.17;;;16.40;99.90;;;;;;5054353;28;20029;-65
2023/09/13 01:32:45;;;;;;;20.75;16.20;;;16.40;99.90;;;;;;5052426;28;20052;-65
2023/09/13 01:35:11;;;;;;;20.90;16.88;;;16.40;99.90;;;;;;5054366;28;20033;-65
2023/09/13 01:37:37;;;;;;;19.95;15.27;;;16.40;99.90;;;;;;5053844;28;20087;-65
2023/09/13 01:40:06;;;;;;;21.63;16.60;;;16.40;99.90;;;;;;5052847;28;20048;-65
2023/09/13 01:42:33;;;;;;;19.85;15.18;;;16.40;99.90;;;;;;5052846;28;20544;-65
2023/09/13 01:45:00;;;;;;;23.88;16.40;;;16.30;99.90;;;;;;5052676;28;20036;-65
2023/09/13 01:47:27;;;;;;;25.55;16.45;;;16.40;99.90;;;;;;5054007;28;20053;-65
2023/09/13 01:49:54;;;;;;;19.27;16.27;;;16.40;99.90;;;;;;5054384;28;20029;-65
2023/09/13 01:52:20;;;;;;;20.40;15.27;;;16.30;99.90;;;;;;5058058;28;20021;-65
2023/09/13 01:54:46;;;;;;;20.38;16.38;;;16.40;99.90;;;;;;5057632;28;20362;-65
2023/09/13 01:57:12;;;;;;;24.02;16.60;;;16.30;99.90;;;;;;5057829;28;20516;-65
2023/09/13 01:59:38;;;;;;;22.52;16.23;;;16.30;99.90;;;;;;5056336;28;20025;-65
2023/09/13 02:02:04;;;;;;;22.27;16.30;;;16.30;99.90;;;;;;5056661;28;20120;-65
2023/09/13 02:04:33;;;;;;;23.23;16.25;;;16.30;99.90;;;;;;5057718;28;20075;-65
2023/09/13 02:07:02;;;;;;;22.33;17.17;;;16.30;99.90;;;;;;5058070;28;20049;-65
2023/09/13 02:09:29;;;;;;;20.75;16.42;;;16.30;99.90;;;;;;5057139;28;20055;-65
2023/09/13 02:11:55;;;;;;;22.92;16.80;;;16.30;99.90;;;;;;5057828;28;20025;-65
2023/09/13 02:14:21;;;;;;;20.17;16.48;;;16.20;99.90;;;;;;5056192;28;20029;-65
2023/09/13 02:16:47;;;;;;;21.27;15.75;;;16.20;99.90;;;;;;5056556;28;20025;-65
2023/09/13 02:19:13;;;;;;;24.50;17.10;;;16.10;99.90;;;;;;5057278;28;20258;-65
2023/09/13 02:21:40;;;;;;;21.80;17.30;;;16.20;99.90;;;;;;5057331;28;20029;-65
2023/09/13 02:24:06;;;;;;;23.45;15.95;;;16.10;99.90;;;;;;5057206;28;20037;-65
2023/09/13 02:26:32;;;;;;;21.45;16.50;;;16.10;99.90;;;;;;5056396;28;20071;-65
2023/09/13 02:28:58;;;;;;;19.10;15.93;;;16.10;99.90;;;;;;5057088;28;20044;-65
2023/09/13 02:31:26;;;;;;;22.92;17.23;;;16.10;99.90;;;;;;5057257;28;20495;-65
2023/09/13 02:33:53;;;;;;;22.85;17.73;;;16.10;99.90;;;;;;5056103;28;20025;-65
2023/09/13 02:36:19;;;;;;;25.38;17.58;;;16.00;99.90;;;;;;5056934;28;20094;-65
2023/09/13 02:38:45;;;;;;;21.23;17.08;;;16.00;99.90;;;;;;5056071;28;20029;-65
2023/09/13 02:41:12;;;;;;;26.90;17.40;;;16.10;99.90;;;;;;5057136;28;20039;-65
2023/09/13 02:43:41;;;;;;;26.40;18.17;;;16.00;99.90;;;;;;5057013;28;20096;-65
2023/09/13 02:46:07;;;;;;;27.02;18.02;;;16.00;99.90;;;;;;5056820;28;20112;-65
2023/09/13 02:48:34;;;;;;;24.73;17.50;;;15.90;99.90;;;;;;5057292;28;20033;-65
2023/09/13 02:51:00;;;;;;;23.42;18.35;;;15.90;99.90;;;;;;5055312;28;20048;-65
2023/09/13 02:53:26;;;;;;;24.13;16.90;;;15.90;99.90;;;;;;5055651;28;20112;-65
2023/09/13 02:55:52;;;;;;;30.60;17.25;;;15.90;99.90;;;;;;5055153;28;20052;-65
2023/09/13 02:58:18;;;;;;;25.98;17.77;;;15.90;99.90;;;;;;5055703;28;20028;-65
2023/09/13 03:00:44;;;;;;;26.25;17.30;;;15.90;99.90;;;;;;5054763;28;20131;-65
2023/09/13 03:03:11;;;;;;;23.95;17.27;;;15.90;99.90;;;;;;5055560;28;20033;-65
2023/09/13 03:05:37;;;;;;;29.10;18.65;;;15.80;99.90;;;;;;5056350;28;20166;-65
2023/09/13 03:08:04;;;;;;;25.35;16.85;;;15.80;99.90;;;;;;5055408;28;20091;-65
2023/09/13 03:10:33;;;;;;;26.35;17.50;;;15.90;99.90;;;;;;5055087;28;20036;-65
2023/09/13 03:12:59;;;;;;;27.42;17.80;;;15.80;99.90;;;;;;5056617;28;20033;-65
2023/09/13 03:15:25;;;;;;;26.45;17.85;;;15.80;99.90;;;;;;5055230;28;20222;-65
2023/09/13 03:17:51;;;;;;;24.88;17.90;;;15.70;99.90;;;;;;5056328;28;20028;-65
2023/09/13 03:20:17;;;;;;;26.98;18.00;;;15.70;99.90;;;;;;5055005;28;20033;-65
2023/09/13 03:22:43;;;;;;;24.50;18.08;;;15.60;99.90;;;;;;5056153;28;20028;-65
2023/09/13 03:25:10;;;;;;;22.98;16.85;;;15.50;99.90;;;;;;5055145;28;20037;-65
2023/09/13 03:27:36;;;;;;;24.35;17.52;;;15.60;99.90;;;;;;5054395;28;20060;-65
2023/09/13 03:30:02;;;;;;;24.30;18.08;;;15.60;99.90;;;;;;5056495;28;20021;-65
2023/09/13 03:32:30;;;;;;;22.85;18.98;;;15.50;99.90;;;;;;5054582;28;20029;-65
2023/09/13 03:34:57;;;;;;;27.50;18.83;;;15.50;99.90;;;;;;5054877;28;20025;-65
2023/09/13 03:37:23;;;;;;;23.08;18.08;;;15.50;99.90;;;;;;5054653;28;20054;-65
2023/09/13 03:39:49;;;;;;;26.48;18.77;;;15.50;99.90;;;;;;5054741;28;20025;-65
2023/09/13 03:42:15;;;;;;;25.05;18.67;;;15.60;99.90;;;;;;5054616;28;20041;-65
2023/09/13 03:44:41;;;;;;;22.35;18.35;;;15.50;99.90;;;;;;5056051;28;20032;-65
2023/09/13 03:47:08;;;;;;;32.17;20.55;;;15.40;99.90;;;;;;5054356;28;20031;-65
2023/09/13 03:49:34;;;;;;;28.48;20.58;;;15.40;99.90;;;;;;5055866;28;20047;-65
2023/09/13 03:52:01;;;;;;;26.33;18.92;;;15.40;99.90;;;;;;5054491;28;20116;-64
2023/09/13 03:54:28;;;;;;;26.17;19.10;;;15.30;99.90;;;;;;5037940;28;20025;-65
2023/09/13 03:56:53;;;;;;;29.63;21.33;;;15.30;99.90;;;;;;5055498;28;20032;-65
2023/09/13 03:59:20;;;;;;;44.13;21.90;;;15.30;99.90;;;;;;5054601;28;20119;-65
2023/09/13 04:01:46;;;;;;;40.65;22.00;;;15.30;99.90;;;;;;5054370;28;20594;-65
2023/09/13 04:04:12;;;;;;;32.50;21.63;;;15.30;99.90;;;;;;5055299;28;20033;-65
2023/09/13 04:06:39;;;;;;;33.42;21.40;;;15.30;99.90;;;;;;5054466;28;20551;-65
2023/09/13 04:09:06;;;;;;;32.80;22.08;;;15.30;99.90;;;;;;5054873;28;20032;-65
2023/09/13 04:11:32;;;;;;;32.80;20.70;;;15.30;99.90;;;;;;5055190;28;20056;-65
2023/09/13 04:13:58;;;;;;;31.15;20.35;;;15.30;99.90;;;;;;5053618;28;20382;-65
2023/09/13 04:16:24;;;;;;;30.10;21.20;;;15.10;99.90;;;;;;5055193;28;20500;-65
2023/09/13 04:18:50;;;;;;;33.47;20.90;;;15.20;99.90;;;;;;5055028;28;20028;-65
2023/09/13 04:21:16;;;;;;;32.25;20.75;;;15.10;99.90;;;;;;5054040;28;20029;-65
2023/09/13 04:23:42;;;;;;;34.50;21.98;;;15.10;99.90;;;;;;5053350;28;20505;-65
2023/09/13 04:26:09;;;;;;;29.88;21.33;;;15.00;99.90;;;;;;5053913;28;20468;-65
2023/09/13 04:28:35;;;;;;;31.92;21.60;;;15.00;99.90;;;;;;5053188;28;20041;-65
2023/09/13 04:31:03;;;;;;;31.77;21.35;;;14.90;99.90;;;;;;5053714;28;20056;-65
2023/09/13 04:34:03;;;;;;;29.02;21.15;;;14.90;99.90;;;;;;5053303;28;20033;-65
2023/09/13 04:36:33;;;;;;;34.08;22.77;;;14.90;99.90;;;;;;5043475;28;20037;-65
2023/09/13 04:38:59;;;;;;;29.15;22.02;;;14.90;99.90;;;;;;5053232;28;20414;-65
2023/09/13 04:41:26;;;;;;;29.08;20.27;;;14.90;99.90;;;;;;5053510;28;20035;-65
2023/09/13 04:43:52;;;;;;;33.08;21.35;;;14.90;99.90;;;;;;5052986;28;20061;-65
2023/09/13 04:46:19;;;;;;;36.15;22.83;;;14.90;99.90;;;;;;5053580;28;20029;-65
2023/09/13 04:48:45;;;;;;;33.92;22.40;;;14.80;99.90;;;;;;5053095;28;20437;-65
2023/09/13 04:51:11;;;;;;;34.92;22.85;;;14.90;99.90;;;;;;5053254;28;20078;-65
2023/09/13 04:53:38;;;;;;;35.70;24.25;;;14.90;99.90;;;;;;5053011;28;20036;-65
2023/09/13 04:56:04;;;;;;;31.77;24.30;;;15.10;99.90;;;;;;5053330;28;20028;-65
2023/09/13 04:58:36;;;;;;;31.30;24.73;;;15.10;99.90;;;;;;5053029;28;20028;-65
2023/09/13 05:01:02;;;;;;;37.15;24.45;;;15.20;99.90;;;;;;5054412;28;20054;-65
2023/09/13 05:03:29;;;;;;;32.83;24.13;;;15.30;99.90;;;;;;5053321;28;20080;-65
2023/09/13 05:05:57;;;;;;;40.50;26.48;;;15.30;99.90;;;;;;5053955;28;20040;-65
2023/09/13 05:08:23;;;;;;;40.85;27.85;;;15.40;99.90;;;;;;5047826;28;20044;-65
2023/09/13 05:10:52;;;;;;;42.33;27.38;;;15.50;99.90;;;;;;5051039;28;20390;-65
2023/09/13 05:13:18;;;;;;;50.17;28.13;;;15.60;99.90;;;;;;5054607;28;20594;-65
2023/09/13 05:15:44;;;;;;;46.42;28.80;;;15.60;99.90;;;;;;5054161;28;20021;-65
2023/09/13 05:18:11;;;;;;;41.33;26.52;;;15.70;99.90;;;;;;5054318;28;20044;-65
2023/09/13 05:20:37;;;;;;;40.63;24.95;;;15.70;99.90;;;;;;5053729;28;20107;-65
2023/09/13 05:23:04;;;;;;;46.03;25.92;;;15.80;99.90;;;;;;5054554;28;20378;-65
2023/09/13 05:25:30;;;;;;;48.67;26.63;;;15.90;99.90;;;;;;5053749;28;20029;-65
2023/09/13 05:27:56;;;;;;;54.33;26.67;;;16.10;99.90;;;;;;5053768;28;20510;-65
2023/09/13 05:30:23;;;;;;;44.58;25.98;;;16.20;99.90;;;;;;5053878;28;20089;-65
2023/09/13 05:32:49;;;;;;;49.30;26.95;;;16.40;99.90;;;;;;5050819;28;20530;-65
2023/09/13 05:35:16;;;;;;;58.17;27.10;;;16.60;99.90;;;;;;5033848;28;20017;-65
2023/09/13 05:37:42;;;;;;;46.08;26.00;;;16.80;99.90;;;;;;5037609;28;20082;-65
2023/09/13 05:40:11;;;;;;;43.85;27.90;;;17.00;99.90;;;;;;5033720;28;20033;-65
2023/09/13 05:42:37;;;;;;;38.65;24.70;;;17.10;99.90;;;;;;5033589;28;20076;-65
2023/09/13 05:45:04;;;;;;;43.30;26.05;;;17.30;99.90;;;;;;5047175;28;20028;-65
2023/09/13 05:47:30;;;;;;;39.70;25.27;;;17.40;99.90;;;;;;5053376;28;20179;-65
2023/09/13 05:49:56;;;;;;;37.85;25.35;;;17.60;99.90;;;;;;5048846;28;20132;-65
2023/09/13 05:52:21;;;;;;;44.58;26.73;;;17.60;99.90;;;;;;5041835;28;20028;-65
2023/09/13 05:54:47;;;;;;;40.20;25.05;;;17.80;99.90;;;;;;5053705;28;20021;-65
2023/09/13 05:57:13;;;;;;;47.08;26.08;;;18.00;99.90;;;;;;5051045;28;20029;-65
2023/09/13 05:59:43;;;;;;;51.35;25.27;;;18.20;99.90;;;;;;5044109;28;20120;-65
2023/09/13 06:02:09;;;;;;;48.13;28.27;;;18.40;99.90;;;;;;5053956;28;20119;-65
2023/09/13 06:04:35;;;;;;;51.28;26.80;;;18.40;99.90;;;;;;5054097;28;20033;-65
2023/09/13 06:07:01;;;;;;;46.33;25.45;;;18.50;99.90;;;;;;5054025;28;20112;-65
2023/09/13 06:09:27;;;;;;;39.40;24.30;;;18.70;99.90;;;;;;5050837;28;20645;-65
2023/09/13 06:11:54;;;;;;;45.15;24.85;;;18.90;99.90;;;;;;5050830;28;20025;-66
2023/09/13 06:14:19;;;;;;;39.50;23.27;;;19.10;99.90;;;;;;5043551;28;20079;-65
2023/09/13 06:16:45;;;;;;;51.55;26.40;;;19.40;99.90;;;;;;5053320;28;20021;-65
2023/09/13 06:19:12;;;;;;;43.47;25.15;;;19.60;99.90;;;;;;5051931;28;20040;-65
2023/09/13 06:21:38;;;;;;;42.08;23.77;;;20.00;99.90;;;;;;5049530;28;20035;-65
2023/09/13 06:24:04;;;;;;;49.10;24.42;;;20.40;99.90;;;;;;5041366;28;20493;-65
2023/09/13 06:26:44;;;;;;;43.28;23.80;;;20.80;99.90;;;;;;5039488;28;20021;-65
2023/09/13 06:29:10;;;;;;;47.53;24.13;;;21.20;99.90;;;;;;5040166;28;20053;-65
2023/09/13 06:31:37;;;;;;;43.58;22.17;;;21.80;98.30;;;;;;5048249;28;20044;-65
2023/09/13 06:34:03;;;;;;;33.33;21.30;;;22.30;97.70;;;;;;5044807;28;20025;-65
2023/09/13 06:36:29;;;;;;;49.33;23.15;;;22.60;96.10;;;;;;5049931;28;20037;-65
2023/09/13 06:38:55;;;;;;;41.17;22.17;;;22.90;95.00;;;;;;5056368;28;20115;-65
2023/09/13 06:41:21;;;;;;;38.35;22.52;;;23.10;94.20;;;;;;5056568;28;20111;-65
2023/09/13 06:43:47;;;;;;;40.22;21.73;;;23.10;92.80;;;;;;5055074;28;20063;-65
2023/09/13 06:46:13;;;;;;;51.35;22.67;;;23.30;91.40;;;;;;5056742;28;20059;-65
2023/09/13 06:48:39;;;;;;;43.17;22.85;;;23.20;91.70;;;;;;5054376;28;20163;-65
2023/09/13 06:51:05;;;;;;;34.38;21.52;;;23.80;90.10;;;;;;5046428;28;20033;-65
2023/09/13 06:53:31;;;;;;;46.50;23.27;;;24.10;88.90;;;;;;5050254;28;20028;-65
2023/09/13 06:55:57;;;;;;;53.30;22.67;;;24.50;88.60;;;;;;5052762;28;20021;-65
2023/09/13 06:58:23;;;;;;;50.38;23.48;;;25.20;84.10;;;;;;5056659;28;20458;-65
2023/09/13 07:00:49;;;;;;;39.45;24.27;;;25.30;82.70;;;;;;5056687;28;20067;-65
2023/09/13 07:03:15;;;;;;;41.50;22.23;;;25.30;79.60;;;;;;5056209;28;20029;-66
2023/09/13 07:05:42;;;;;;;47.10;23.33;;;25.40;79.70;;;;;;5056361;28;20075;-66
2023/09/13 07:08:09;;;;;;;46.20;23.88;;;25.60;78.70;;;;;;5055854;28;20100;-66
2023/09/13 07:10:35;;;;;;;49.17;22.83;;;26.00;77.60;;;;;;5056868;28;20029;-66
2023/09/13 07:13:02;;;;;;;39.55;22.38;;;26.10;74.50;;;;;;5055978;28;20070;-66
2023/09/13 07:15:28;;;;;;;51.22;23.92;;;26.40;72.80;;;;;;5056472;28;20075;-66
2023/09/13 07:17:54;;;;;;;45.33;21.17;;;26.60;71.30;;;;;;5056509;28;20037;-66
2023/09/13 07:20:21;;;;;;;39.92;21.42;;;26.60;70.20;;;;;;5051865;28;20036;-66
2023/09/13 07:22:47;;;;;;;43.25;22.33;;;26.50;69.30;;;;;;5040200;28;20061;-66
2023/09/13 07:25:12;;;;;;;39.63;20.52;;;27.20;68.60;;;;;;5042734;28;20028;-66
2023/09/13 07:27:39;;;;;;;44.55;22.20;;;27.80;67.80;;;;;;5055817;28;20051;-66
2023/09/13 07:30:09;;;;;;;50.47;22.88;;;27.70;65.30;;;;;;5056533;28;20021;-66
2023/09/13 07:32:35;;;;;;;;;;;28.20;64.30;;;;;;5056394;28;20104;-66
2023/09/13 07:35:03;;;;;;;44.40;19.63;;;28.40;60.70;;;;;;5054323;28;19976;-66
2023/09/13 07:37:31;;;;;;;42.58;17.55;;;28.30;60.70;;;;;;5056154;28;20036;-66
2023/09/13 07:39:57;;;;;;;30.13;16.63;;;28.80;61.10;;;;;;5047384;28;20083;-66
2023/09/13 07:42:24;;;;;;;30.92;17.20;;;29.10;57.70;;;;;;5045159;28;20429;-66
2023/09/13 07:44:50;;;;;;;31.85;17.45;;;29.00;57.30;;;;;;5055113;28;20124;-66
2023/09/13 07:47:15;;;;;;;33.45;16.08;;;28.90;55.60;;;;;;5055838;28;20494;-66
2023/09/13 07:49:41;;;;;;;26.15;13.85;;;28.60;55.30;;;;;;5054448;28;20021;-66
2023/09/13 07:52:07;;;;;;;39.85;17.25;;;29.00;54.60;;;;;;5055761;28;20455;-66
2023/09/13 07:54:33;;;;;;;39.63;15.27;;;28.90;53.90;;;;;;5047383;28;20050;-66
2023/09/13 07:56:59;;;;;;;28.85;14.13;;;29.60;54.30;;;;;;5055326;28;20038;-66
2023/09/13 07:59:26;;;;;;;27.20;14.80;;;30.40;51.10;;;;;;5055408;28;20029;-66
2023/09/13 08:01:52;;;;;;;26.25;13.43;;;30.60;49.90;;;;;;5055368;28;20489;-66
2023/09/13 08:04:18;;;;;;;24.85;12.63;;;30.80;47.80;;;;;;5055429;28;20025;-66
2023/09/13 08:06:44;;;;;;;26.77;11.63;;;31.30;46.70;;;;;;5051951;28;20078;-67
2023/09/13 08:09:15;;;;;;;31.38;12.50;;;31.20;44.30;;;;;;5052527;28;20430;-67
2023/09/13 08:11:41;;;;;;;17.42;10.20;;;31.20;41.60;;;;;;5053973;28;20033;-67
2023/09/13 08:14:07;;;;;;;26.52;12.65;;;31.60;41.80;;;;;;5056142;28;20352;-66
2023/09/13 08:16:34;;;;;;;24.50;13.00;;;31.80;42.50;;;;;;5054979;28;20037;-67
2023/09/13 08:19:00;;;;;;;23.83;10.20;;;32.10;40.80;;;;;;5055255;28;20387;-67
2023/09/13 08:21:26;;;;;;;27.55;11.48;;;32.30;37.40;;;;;;5054815;28;20025;-67
2023/09/13 08:23:52;;;;;;;22.63;10.52;;;32.20;38.40;;;;;;5054989;28;20020;-67
2023/09/13 08:26:18;;;;;;;19.23;10.40;;;32.30;39.10;;;;;;5052852;28;20072;-67
2023/09/13 08:28:44;;;;;;;27.40;10.80;;;32.30;36.80;;;;;;5054885;28;20048;-67
2023/09/13 08:31:11;;;;;;;24.60;12.95;;;32.60;36.20;;;;;;5054540;28;20017;-67
2023/09/13 08:33:37;;;;;;;22.27;11.15;;;32.50;36.80;;;;;;5054903;28;20017;-67
2023/09/13 08:36:03;;;;;;;34.50;11.95;;;33.30;36.80;;;;;;5054629;28;20043;-67
2023/09/13 08:38:29;;;;;;;29.77;13.75;;;33.60;35.40;;;;;;5054741;28;20438;-67
2023/09/13 08:40:55;;;;;;;19.67;10.57;;;34.00;32.40;;;;;;5054573;28;20040;-67
2023/09/13 08:43:30;;;;;;;19.38;9.88;;;33.90;32.80;;;;;;5054792;28;20043;-67
2023/09/13 08:45:59;;;;;;;20.00;9.45;;;33.90;32.60;;;;;;5050915;28;20043;-67
2023/09/13 08:48:26;;;;;;;21.35;9.38;;;34.20;31.50;;;;;;5054318;28;20029;-67
2023/09/13 08:50:52;;;;;;;21.15;8.40;;;33.90;29.10;;;;;;5051860;28;20079;-67
2023/09/13 08:53:19;;;;;;;16.73;8.88;;;33.90;30.70;;;;;;5040356;28;20023;-67
2023/09/13 08:55:46;;;;;;;21.38;9.57;;;34.00;28.70;;;;;;5054382;28;20084;-67
2023/09/13 08:58:12;;;;;;;21.83;9.45;;;34.30;29.10;;;;;;5053767;28;20032;-67
2023/09/13 09:00:41;;;;;;;31.23;9.27;;;34.50;28.80;;;;;;5053691;28;20033;-67
2023/09/13 09:03:17;;;;;;;30.05;9.85;;;34.50;27.60;;;;;;5037207;28;20025;-67
2023/09/13 09:05:45;;;;;;;16.35;8.15;;;34.20;27.60;;;;;;5048363;28;20398;-67
2023/09/13 09:08:11;;;;;;;20.92;8.40;;;34.60;27.50;;;;;;5033769;28;20025;-67
2023/09/13 09:10:37;;;;;;;29.63;8.38;;;34.70;27.90;;;;;;5034556;28;20087;-67
2023/09/13 09:13:04;;;;;;;24.42;8.80;;;34.20;27.50;;;;;;5033915;28;20387;-67
2023/09/13 09:15:33;;;;;;;20.90;8.52;;;35.00;27.20;;;;;;5034337;28;20029;-67
2023/09/13 09:18:04;;;;;;;11.68;6.07;;;35.00;26.40;;;;;;5034201;28;20037;-67
2023/09/13 09:20:30;;;;;;;13.63;5.55;;;35.40;23.90;;;;;;5034447;28;20116;-67
2023/09/13 09:22:59;;;;;;;17.73;5.97;;;35.60;23.20;;;;;;5033570;28;20036;-67
2023/09/13 09:25:26;;;;;;;11.55;5.38;;;35.90;24.20;;;;;;5034057;28;20029;-68
2023/09/13 09:27:52;;;;;;;16.45;6.28;;;35.50;20.60;;;;;;5033547;28;20128;-67
2023/09/13 09:30:31;;;;;;;15.43;5.88;;;35.60;23.30;;;;;;5034064;28;20116;-67
2023/09/13 09:33:05;;;;;;;14.43;6.50;;;36.00;20.20;;;;;;5034005;28;20061;-67
2023/09/13 09:35:32;;;;;;;19.17;9.05;;;35.60;21.00;;;;;;5033987;28;20391;-67
2023/09/13 09:37:57;;;;;;;17.83;8.80;;;36.00;19.90;;;;;;5033700;28;20112;-68
2023/09/13 09:40:24;;;;;;;23.02;10.93;;;35.80;19.10;;;;;;5034244;28;20076;-68
2023/09/13 09:42:57;;;;;;;23.27;7.50;;;36.20;20.90;;;;;;5033406;28;20033;-67
2023/09/13 09:45:23;;;;;;;25.23;8.90;;;36.00;18.80;;;;;;5034313;28;20113;-68
2023/09/13 09:47:50;;;;;;;16.95;7.20;;;36.30;19.70;;;;;;5033740;28;20391;-68
2023/09/13 09:50:17;;;;;;;12.52;6.10;;;36.90;20.00;;;;;;5034002;28;20022;-67
2023/09/13 09:52:50;;;;;;;12.68;6.65;;;36.40;18.70;;;;;;5035100;28;20041;-67
2023/09/13 09:55:21;;;;;;;10.80;6.45;;;35.60;18.10;;;;;;5054094;28;20029;-68
2023/09/13 09:57:49;;;;;;;15.45;6.82;;;35.50;20.20;;;;;;5034198;28;20032;-68
2023/09/13 10:00:16;;;;;;;18.85;7.50;;;36.10;20.10;;;;;;5033624;28;20486;-67
2023/09/13 10:02:47;;;;;;;13.32;6.97;;;36.20;18.30;;;;;;5033961;28;20053;-68
2023/09/13 10:05:18;;;;;;;15.27;6.43;;;36.40;17.80;;;;;;5046866;28;20075;-67
2023/09/13 10:07:51;;;;;;;11.93;6.35;;;36.60;19.30;;;;;;5053677;28;20021;-68
2023/09/13 10:10:37;;;;;;;12.05;7.10;;;36.90;17.20;;;;;;5054510;28;20100;-67
2023/09/13 10:13:06;;;;;;;17.50;8.30;;;37.50;18.30;;;;;;5057280;28;20497;-68
2023/09/13 10:15:33;;;;;;;17.40;7.88;;;37.30;17.30;;;;;;5057050;28;20041;-68
2023/09/13 10:18:01;;;;;;;15.65;7.70;;;37.20;16.10;;;;;;5057081;28;20027;-68
2023/09/13 10:20:30;;;;;;;15.98;7.53;;;36.90;17.70;;;;;;5055566;28;20024;-69
2023/09/13 10:22:59;;;;;;;19.63;7.85;;;36.90;16.80;;;;;;5057170;28;20124;-68
2023/09/13 10:25:30;;;;;;;25.15;10.05;;;36.40;16.50;;;;;;5056800;28;20041;-68
2023/09/13 10:27:59;;;;;;;17.92;8.38;;;36.40;17.20;;;;;;5056585;28;20041;-68
2023/09/13 10:30:28;;;;;;;13.97;8.17;;;36.00;17.70;;;;;;5054179;28;20025;-68
2023/09/13 10:33:03;;;;;;;22.70;8.73;;;35.80;16.60;;;;;;5057147;28;20036;-68
2023/09/13 10:35:32;;;;;;;15.13;8.52;;;36.00;18.80;;;;;;5057309;28;20104;-68
2023/09/13 10:38:23;;;;;;;20.35;8.48;;;36.40;18.00;;;;;;5057355;28;20040;-68
2023/09/13 10:41:03;;;;;;;15.52;7.63;;;36.70;17.60;;;;;;5056695;28;20036;-68
2023/09/13 10:43:31;;;;;;;16.80;7.28;;;37.00;17.90;;;;;;5056798;28;20028;-68
2023/09/13 10:45:58;;;;;;;16.77;7.82;;;37.00;17.60;;;;;;5056833;28;20130;-68
2023/09/13 10:48:25;;;;;;;11.52;6.53;;;36.80;17.40;;;;;;5056788;28;20110;-68
2023/09/13 10:50:54;;;;;;;14.63;6.57;;;36.80;16.90;;;;;;5056309;28;20029;-68
2023/09/13 10:53:23;;;;;;;10.45;5.72;;;37.10;16.60;;;;;;5056509;28;20498;-68
2023/09/13 10:55:50;;;;;;;16.05;5.88;;;37.60;14.90;;;;;;5056340;28;20031;-68
2023/09/13 10:58:20;;;;;;;15.52;6.95;;;36.90;15.70;;;;;;5056954;28;20028;-67
2023/09/13 11:00:50;;;;;;;11.50;5.50;;;37.30;16.20;;;;;;5056436;28;20202;-67
2023/09/13 11:03:17;;;;;;;15.65;5.70;;;37.20;15.70;;;;;;5056447;28;20494;-68
2023/09/13 11:05:47;;;;;;;17.58;6.57;;;37.40;15.80;;;;;;5056493;28;20033;-68
2023/09/13 11:08:29;;;;;;;;;;;37.70;16.20;;;;;;5055199;28;20037;-68
2023/09/13 11:10:56;;;;;;;13.27;6.32;;;37.90;15.70;;;;;;5056211;28;20011;-68
2023/09/13 11:13:31;;;;;;;15.10;6.85;;;38.30;14.40;;;;;;5056470;28;20059;-68
2023/09/13 11:16:03;;;;;;;11.57;5.60;;;38.70;15.00;;;;;;5055960;28;20107;-68
2023/09/13 11:18:29;;;;;;;9.35;5.85;;;37.90;13.50;;;;;;5056458;28;20112;-68
2023/09/13 11:20:56;;;;;;;14.85;6.88;;;37.90;14.00;;;;;;5055754;28;20075;-68
2023/09/13 11:23:22;;;;;;;7.57;5.40;;;37.50;14.90;;;;;;5055972;28;20028;-68
2023/09/13 11:25:52;;;;;;;14.00;6.15;;;37.30;14.20;;;;;;5056018;28;20052;-68
2023/09/13 11:28:46;;;;;;;15.18;7.40;;;37.00;15.70;;;;;;5056091;28;20438;-68
2023/09/13 11:31:17;;;;;;;13.85;6.93;;;37.10;15.80;;;;;;5054437;28;20037;-68
2023/09/13 11:33:56;;;;;;;17.73;6.38;;;37.50;15.20;;;;;;5056128;28;20528;-68
2023/09/13 11:36:24;;;;;;;12.15;5.80;;;38.00;15.30;;;;;;5055807;28;20029;-68
2023/09/13 11:38:52;;;;;;;9.93;5.95;;;37.80;14.00;;;;;;5055966;28;20082;-68
2023/09/13 11:41:18;;;;;;;12.63;5.85;;;37.70;15.00;;;;;;5055838;28;20048;-68
2023/09/13 11:43:45;;;;;;;13.98;6.85;;;37.90;14.80;;;;;;5055771;28;20021;-68
2023/09/13 11:46:12;;;;;;;12.05;6.35;;;37.90;16.10;;;;;;5055911;28;20036;-68
2023/09/13 11:48:41;;;;;;;12.60;5.95;;;37.90;14.00;;;;;;5055866;28;20070;-68
2023/09/13 11:51:13;;;;;;;13.50;6.40;;;37.50;14.40;;;;;;5055841;28;20118;-68
2023/09/13 11:53:40;;;;;;;7.57;5.63;;;37.20;13.80;;;;;;5055172;28;20032;-68
2023/09/13 11:56:07;;;;;;;14.68;6.25;;;37.30;13.70;;;;;;5055794;28;20100;-68
2023/09/13 11:58:36;;;;;;;14.35;6.00;;;36.50;14.50;;;;;;5055279;28;20316;-68
2023/09/13 12:01:07;;;;;;;13.98;6.57;;;37.10;14.50;;;;;;5055764;28;20021;-68
2023/09/13 12:03:39;;;;;;;14.20;6.95;;;37.40;13.70;;;;;;5052255;28;20036;-68
2023/09/13 12:06:06;;;;;;;18.13;7.43;;;37.10;13.80;;;;;;5055108;28;20042;-67
2023/09/13 12:08:37;;;;;;;12.45;6.45;;;37.10;13.70;;;;;;5054943;28;20471;-68
2023/09/13 12:11:06;;;;;;;12.82;6.68;;;35.60;13.90;;;;;;5055670;28;20025;-67
2023/09/13 12:13:54;;;;;;;13.45;5.72;;;35.50;15.40;;;;;;5054881;28;20025;-68
2023/09/13 12:16:20;;;;;;;13.48;6.53;;;35.80;15.90;;;;;;5055532;28;20032;-68
2023/09/13 12:18:46;;;;;;;8.63;4.95;;;35.80;16.00;;;;;;5054425;28;20040;-68
2023/09/13 12:21:13;;;;;;;11.50;5.93;;;36.00;14.70;;;;;;5054978;28;20032;-67
2023/09/13 12:23:46;;;;;;;10.38;4.90;;;35.90;14.20;;;;;;5055023;28;20426;-68
2023/09/13 12:26:17;;;;;;;12.23;6.13;;;36.00;15.10;;;;;;5055060;28;20074;-68
2023/09/13 12:28:45;;;;;;;9.05;5.40;;;35.70;14.10;;;;;;5053729;28;20082;-67
2023/09/13 12:31:13;;;;;;;9.32;5.25;;;35.80;15.70;;;;;;5055314;28;20265;-68
2023/09/13 12:33:44;;;;;;;7.82;4.82;;;36.00;15.20;;;;;;5045871;28;20429;-68